Hartford, Vermont
Current Conditions -  °F | °C
As of 9:53 PM on Thursday 27 Nov 2014 (Local Time) from KLEB Reporting Station
Overcast Overcast  
Wind Chill: 23°   Ceiling: 2000
Heat Index: 28°   Visibility: 10mi
Dew Point: 22°   Wind: 5mph
Humidity: 78%   Direction: 30°NNE
Pressure: 30.02"   Gusts: NA
Location:  43.66°N, 72.34°W
Report Text: KLEB 280253Z 03004KT 10SM OVC020 M02/M06 A3002 RMK AO2 SLP176 T10221056 53009
Loading
Personal Weather Stations






























Interactive Weather Map New forecast layout! Learn more

10-Day Weather Forecast

Advertisements
Track Severe Weather on mobile